createdAt,value
2022-07-26T00:00:40.856Z,20.12
2022-07-26T00:03:22.037Z,20.10
2022-07-26T00:06:10.765Z,20.12
2022-07-26T00:08:53.057Z,20.13
2022-07-26T00:11:40.926Z,20.12
2022-07-26T00:14:24.028Z,20.12
2022-07-26T00:17:12.758Z,20.13
2022-07-26T00:19:53.967Z,20.11
2022-07-26T00:22:41.803Z,20.09
2022-07-26T00:25:22.971Z,20.05
2022-07-26T00:28:10.739Z,20.00
2022-07-26T00:30:54.958Z,19.97
2022-07-26T00:33:43.790Z,19.91
2022-07-26T00:36:27.626Z,19.90
2022-07-26T00:39:15.840Z,19.89
2022-07-26T00:41:56.955Z,19.83
2022-07-26T00:44:45.710Z,19.84
2022-07-26T00:47:35.720Z,19.84
2022-07-26T00:50:25.955Z,19.85
2022-07-26T00:53:07.701Z,19.88
2022-07-26T00:55:56.850Z,19.91
2022-07-26T00:58:37.923Z,19.91
2022-07-26T01:01:25.767Z,19.89
2022-07-26T01:04:09.338Z,19.85
2022-07-26T01:06:58.670Z,19.84
2022-07-26T01:09:46.680Z,19.84
2022-07-26T01:12:34.892Z,19.85
2022-07-26T01:15:18.697Z,19.87
2022-07-26T01:18:06.903Z,19.89
2022-07-26T01:20:51.669Z,19.91
2022-07-26T01:23:41.649Z,19.93
2022-07-26T01:26:29.638Z,19.91
2022-07-26T01:29:18.666Z,19.93
2022-07-26T01:32:01.436Z,19.96
2022-07-26T01:34:50.678Z,19.98
2022-07-26T01:37:31.892Z,20.01
2022-07-26T01:40:21.655Z,20.01
2022-07-26T01:43:02.863Z,20.02
2022-07-26T01:45:50.657Z,20.03
2022-07-26T01:48:32.002Z,20.01
2022-07-26T01:51:19.624Z,20.00
2022-07-26T01:54:07.827Z,19.95
2022-07-26T01:56:50.882Z,19.91
2022-07-26T01:59:38.609Z,19.86
2022-07-26T02:02:26.943Z,19.80
2022-07-26T02:05:08.603Z,19.81
2022-07-26T02:07:57.625Z,19.76
2022-07-26T02:10:57.628Z,19.77
2022-07-26T02:13:53.051Z,19.77
2022-07-26T02:16:41.799Z,19.80
2022-07-26T02:19:23.728Z,19.79
2022-07-26T02:22:11.827Z,19.75
2022-07-26T02:24:53.563Z,19.76
2022-07-26T02:27:42.590Z,19.77
2022-07-26T02:30:32.572Z,19.76
2022-07-26T02:33:16.012Z,19.77
2022-07-26T02:36:03.567Z,19.78
2022-07-26T02:38:51.793Z,19.80
2022-07-26T02:41:35.584Z,19.80
2022-07-26T02:44:17.467Z,19.80
2022-07-26T02:47:07.549Z,19.81
2022-07-26T02:49:49.367Z,19.81
2022-07-26T02:52:37.559Z,19.77
2022-07-26T02:55:27.534Z,19.76
2022-07-26T02:58:09.763Z,19.75
2022-07-26T03:00:58.547Z,19.70
2022-07-26T03:03:43.119Z,19.54
2022-07-26T03:06:32.528Z,19.31
2022-07-26T03:09:20.544Z,19.15
2022-07-26T03:12:09.503Z,18.97
2022-07-26T03:14:59.516Z,18.82
2022-07-26T03:17:47.759Z,18.66
2022-07-26T03:20:30.517Z,18.58
2022-07-26T03:23:12.600Z,18.48
2022-07-26T03:26:00.533Z,18.37
2022-07-26T03:28:48.729Z,18.24
2022-07-26T03:31:32.550Z,18.14
2022-07-26T03:34:20.715Z,18.03
2022-07-26T03:37:03.458Z,17.97
2022-07-26T03:39:45.340Z,17.91
2022-07-26T03:42:33.461Z,17.88
2022-07-26T03:45:15.730Z,17.88
2022-07-26T03:48:03.462Z,17.86
2022-07-26T03:50:45.294Z,17.85
2022-07-26T03:53:35.486Z,17.82
2022-07-26T03:56:42.574Z,17.77
2022-07-26T03:59:25.679Z,17.74
2022-07-26T04:02:14.517Z,17.76
2022-07-26T04:05:03.434Z,17.82
2022-07-26T04:07:53.163Z,17.89
2022-07-26T04:10:43.435Z,17.98
2022-07-26T04:13:31.680Z,18.06
2022-07-26T04:16:14.398Z,18.18
2022-07-26T04:19:03.133Z,18.20
2022-07-26T04:21:43.411Z,18.22
2022-07-26T04:24:25.559Z,18.24
2022-07-26T04:27:15.407Z,18.27
2022-07-26T04:30:03.658Z,18.32
2022-07-26T04:32:46.757Z,18.35
2022-07-26T04:35:34.626Z,18.40
2022-07-26T04:38:15.381Z,18.42
2022-07-26T04:40:59.122Z,18.47
2022-07-26T04:43:49.386Z,18.48
2022-07-26T04:46:37.658Z,18.46
2022-07-26T04:49:19.462Z,18.50
2022-07-26T04:52:07.362Z,18.51
2022-07-26T04:54:55.344Z,18.52
2022-07-26T04:57:44.371Z,18.53
2022-07-26T05:00:56.846Z,18.54
2022-07-26T05:03:39.922Z,18.55
2022-07-26T05:06:29.324Z,18.62
2022-07-26T05:09:17.345Z,18.69
2022-07-26T05:12:05.390Z,18.76
2022-07-26T05:14:53.322Z,18.83
2022-07-26T05:17:52.304Z,18.88
2022-07-26T05:20:41.360Z,18.89
2022-07-26T05:23:22.647Z,18.94
2022-07-26T05:26:11.330Z,18.99
2022-07-26T05:28:52.566Z,19.00
2022-07-26T05:31:40.315Z,19.05
2022-07-26T05:34:25.040Z,19.13
2022-07-26T05:37:13.420Z,19.18
2022-07-26T05:39:54.517Z,19.20
2022-07-26T05:42:42.306Z,19.28
2022-07-26T05:45:23.535Z,19.39
2022-07-26T05:48:12.285Z,19.50
2022-07-26T05:51:02.283Z,19.69
2022-07-26T05:53:50.490Z,19.86
2022-07-26T05:56:32.283Z,20.02
2022-07-26T05:59:20.495Z,20.16
2022-07-26T06:02:03.403Z,20.36
2022-07-26T06:04:47.423Z,20.55
2022-07-26T06:07:37.274Z,20.59
2022-07-26T06:10:25.471Z,20.50
2022-07-26T06:13:07.231Z,20.51
2022-07-26T06:15:56.256Z,20.48
2022-07-26T06:18:44.439Z,20.45
2022-07-26T06:21:25.270Z,20.44
2022-07-26T06:24:15.454Z,20.47
2022-07-26T06:27:05.162Z,20.72
2022-07-26T06:29:55.296Z,20.97
2022-07-26T06:32:37.643Z,21.02
2022-07-26T06:35:26.211Z,21.12
2022-07-26T06:38:14.202Z,21.28
2022-07-26T06:41:04.232Z,21.46
2022-07-26T06:43:45.410Z,21.60
2022-07-26T06:46:33.209Z,21.77
2022-07-26T06:49:23.007Z,21.88
2022-07-26T06:52:12.311Z,22.15
2022-07-26T06:54:53.413Z,22.31
2022-07-26T06:57:44.805Z,22.50
2022-07-26T07:00:30.769Z,22.90
2022-07-26T07:03:18.190Z,23.16
2022-07-26T07:06:06.178Z,23.58
2022-07-26T07:08:56.167Z,24.16
2022-07-26T07:11:44.175Z,25.13
2022-07-26T07:14:33.395Z,27.01
2022-07-26T07:17:33.370Z,27.69
2022-07-26T07:20:15.009Z,27.15
2022-07-26T07:23:03.172Z,26.95
2022-07-26T07:25:45.236Z,27.59
2022-07-26T07:28:36.156Z,27.41
2022-07-26T07:31:30.287Z,27.16
2022-07-26T07:34:11.681Z,26.45
2022-07-26T07:37:01.126Z,25.60
2022-07-26T07:39:44.411Z,24.78
2022-07-26T07:42:38.133Z,23.90
2022-07-26T07:45:26.140Z,23.44
2022-07-26T07:48:16.142Z,23.27
2022-07-26T07:50:57.323Z,23.49
2022-07-26T07:53:56.388Z,23.79
2022-07-26T07:56:45.113Z,24.55
2022-07-26T07:59:39.177Z,24.63
2022-07-26T08:02:27.111Z,24.09
2022-07-26T08:05:14.281Z,23.68
2022-07-26T08:08:03.095Z,23.98
2022-07-26T08:10:49.070Z,26.26
2022-07-26T08:13:45.778Z,26.65
2022-07-26T08:16:36.351Z,25.58
2022-07-26T08:19:18.079Z,25.16
2022-07-26T08:22:11.112Z,26.77
2022-07-26T08:24:52.541Z,28.38
2022-07-26T08:27:41.087Z,30.06
2022-07-26T08:30:22.309Z,31.52
2022-07-26T08:33:10.101Z,32.10
2022-07-26T08:35:53.953Z,31.12
2022-07-26T08:38:47.510Z,30.72
2022-07-26T08:41:29.260Z,31.82
2022-07-26T08:44:19.072Z,32.70
2022-07-26T08:47:00.631Z,32.97
2022-07-26T08:49:49.043Z,33.28
2022-07-26T08:52:30.295Z,32.09
2022-07-26T08:55:24.022Z,31.70
2022-07-26T08:58:13.241Z,30.55
2022-07-26T09:01:15.307Z,30.96
2022-07-26T09:03:56.314Z,30.19
2022-07-26T09:06:44.390Z,28.97
2022-07-26T09:09:25.271Z,28.03
2022-07-26T09:12:33.046Z,27.04
2022-07-26T09:15:25.486Z,26.49
2022-07-26T09:18:13.005Z,26.00
2022-07-26T09:21:01.995Z,26.06
2022-07-26T09:23:50.036Z,26.69
2022-07-26T09:26:38.097Z,27.24
2022-07-26T09:29:28.519Z,27.37
2022-07-26T09:32:23.985Z,28.03
2022-07-26T09:38:24.269Z,30.18
2022-07-26T09:41:24.962Z,31.56
2022-07-26T09:44:14.972Z,31.48
2022-07-26T09:47:05.965Z,31.70
2022-07-26T09:49:54.018Z,31.60
2022-07-26T09:52:41.937Z,30.31
2022-07-26T09:55:39.298Z,30.42
2022-07-26T09:58:26.037Z,30.98
2022-07-26T10:01:13.954Z,31.24
2022-07-26T10:04:03.956Z,31.14
2022-07-26T10:06:52.943Z,30.88
2022-07-26T10:09:48.948Z,30.03
2022-07-26T10:12:35.442Z,29.33
2022-07-26T10:15:41.952Z,29.13
2022-07-26T10:18:52.142Z,28.98
2022-07-26T10:21:36.951Z,28.87
2022-07-26T10:24:34.742Z,28.93
2022-07-26T10:27:16.916Z,29.01
2022-07-26T10:30:35.155Z,28.95
2022-07-26T10:33:29.895Z,29.17
2022-07-26T10:36:29.907Z,28.94
2022-07-26T10:39:25.886Z,29.06
2022-07-26T10:42:15.896Z,29.38
2022-07-26T10:44:57.115Z,29.54
2022-07-26T10:47:45.899Z,29.27
2022-07-26T10:50:47.882Z,29.01
2022-07-26T10:53:36.119Z,28.76
2022-07-26T10:56:18.866Z,28.45
2022-07-26T10:59:06.866Z,27.62
2022-07-26T11:01:51.518Z,27.20
2022-07-26T11:04:38.861Z,27.09
2022-07-26T11:07:26.871Z,26.95
2022-07-26T11:10:16.100Z,26.69
2022-07-26T11:13:20.876Z,26.43
2022-07-26T11:16:13.376Z,26.31
2022-07-26T11:19:00.857Z,26.34
2022-07-26T11:21:42.438Z,26.51
2022-07-26T11:24:30.850Z,26.44
2022-07-26T11:27:13.137Z,26.70
2022-07-26T11:30:02.822Z,26.62
2022-07-26T11:32:50.858Z,26.66
2022-07-26T11:35:38.834Z,27.20
2022-07-26T11:38:26.924Z,27.80
2022-07-26T11:41:08.665Z,28.51
2022-07-26T11:44:01.896Z,29.17
2022-07-26T11:46:47.836Z,29.92
2022-07-26T11:50:00.233Z,30.24
2022-07-26T11:52:49.049Z,30.71
2022-07-26T11:55:34.824Z,30.57
2022-07-26T11:58:22.997Z,29.86
2022-07-26T12:01:04.805Z,29.12
2022-07-26T12:03:56.108Z,28.43
2022-07-26T12:06:36.789Z,27.96
2022-07-26T12:09:41.791Z,27.68
2022-07-26T12:12:29.038Z,27.69
2022-07-26T12:15:17.761Z,27.49
2022-07-26T12:18:13.822Z,27.59
2022-07-26T12:21:08.844Z,27.52
2022-07-26T12:23:51.870Z,27.35
2022-07-26T12:26:40.351Z,27.23
2022-07-26T12:29:33.759Z,27.33
2022-07-26T12:32:23.771Z,27.54
2022-07-26T12:35:09.015Z,27.70
2022-07-26T12:37:59.748Z,28.28
2022-07-26T12:40:48.984Z,29.11
2022-07-26T12:43:49.211Z,29.14
2022-07-26T12:46:31.334Z,28.62
2022-07-26T12:49:18.765Z,27.85
2022-07-26T12:51:59.977Z,27.40
2022-07-26T12:54:51.719Z,27.54
2022-07-26T12:57:33.200Z,27.49
2022-07-26T13:00:25.780Z,27.50
2022-07-26T13:03:07.975Z,27.58
2022-07-26T13:05:55.717Z,28.01
2022-07-26T13:08:43.701Z,28.17
2022-07-26T13:11:26.971Z,27.71
2022-07-26T13:14:15.694Z,27.33
2022-07-26T13:16:56.727Z,26.82
2022-07-26T13:19:52.688Z,26.53
2022-07-26T13:22:34.479Z,26.56
2022-07-26T13:25:22.715Z,26.54
2022-07-26T13:28:15.882Z,26.81
2022-07-26T13:30:56.819Z,27.29
2022-07-26T13:33:44.928Z,27.85
2022-07-26T13:36:25.691Z,28.26
2022-07-26T13:39:13.907Z,28.56
2022-07-26T13:41:55.680Z,29.06
2022-07-26T13:44:51.677Z,29.15
2022-07-26T13:47:39.648Z,29.45
2022-07-26T13:50:27.827Z,30.04
2022-07-26T13:53:16.338Z,30.19
2022-07-26T13:55:56.655Z,30.26
2022-07-26T13:58:38.449Z,30.00
2022-07-26T14:01:43.450Z,29.46
2022-07-26T14:04:33.701Z,28.81
2022-07-26T14:07:14.948Z,28.41
2022-07-26T14:10:02.650Z,27.92
2022-07-26T14:12:43.859Z,27.67
2022-07-26T14:15:31.822Z,27.53
2022-07-26T14:18:27.601Z,27.48
2022-07-26T14:21:15.587Z,27.37
2022-07-26T14:24:04.616Z,27.06
2022-07-26T14:26:56.897Z,26.82
2022-07-26T14:29:47.602Z,26.63
2022-07-26T14:32:35.584Z,26.74
2022-07-26T14:35:25.616Z,26.82
2022-07-26T14:38:06.803Z,26.86
2022-07-26T14:40:55.570Z,26.72
2022-07-26T14:43:36.817Z,26.44
2022-07-26T14:46:26.656Z,26.23
2022-07-26T14:49:14.640Z,26.07
2022-07-26T14:52:04.666Z,25.93
2022-07-26T14:54:46.331Z,25.91
2022-07-26T14:57:38.205Z,25.67
2022-07-26T15:00:22.766Z,25.87
2022-07-26T15:03:10.562Z,25.82
2022-07-26T15:05:52.251Z,25.71
2022-07-26T15:08:41.551Z,25.62
2022-07-26T15:11:29.556Z,25.51
2022-07-26T15:14:17.772Z,25.39
2022-07-26T15:17:20.572Z,25.19
2022-07-26T15:20:03.521Z,25.13
2022-07-26T15:22:51.563Z,25.04
2022-07-26T15:25:41.058Z,25.04
2022-07-26T15:28:22.551Z,25.02
2022-07-26T15:31:10.732Z,24.84
2022-07-26T15:33:51.541Z,24.94
2022-07-26T15:36:40.519Z,25.19
2022-07-26T15:39:21.727Z,25.36
2022-07-26T15:42:14.717Z,25.36
2022-07-26T15:44:56.754Z,25.39
2022-07-26T15:47:55.171Z,25.51
2022-07-26T15:50:46.491Z,25.45
2022-07-26T15:53:46.267Z,25.25
2022-07-26T15:56:34.490Z,25.34
2022-07-26T15:59:17.733Z,25.55
2022-07-26T16:02:06.550Z,25.23
2022-07-26T16:04:48.705Z,25.23
2022-07-26T16:07:37.493Z,25.47
2022-07-26T16:10:26.471Z,25.47
2022-07-26T16:13:14.755Z,25.30
2022-07-26T16:15:57.695Z,25.10
2022-07-26T16:18:52.429Z,24.90
2022-07-26T16:21:40.489Z,24.61
2022-07-26T16:24:21.664Z,24.46
2022-07-26T16:27:09.492Z,24.28
2022-07-26T16:29:52.476Z,24.45
2022-07-26T16:32:42.472Z,24.49
2022-07-26T16:35:30.441Z,24.31
2022-07-26T16:38:12.388Z,24.14
2022-07-26T16:41:00.445Z,24.13
2022-07-26T16:43:49.481Z,24.14
2022-07-26T16:46:31.065Z,24.27
2022-07-26T16:49:20.558Z,24.07
2022-07-26T16:52:01.636Z,23.83
2022-07-26T16:54:49.530Z,23.77
2022-07-26T16:57:30.608Z,23.78
2022-07-26T17:00:22.393Z,23.77
2022-07-26T17:03:10.369Z,23.77
2022-07-26T17:06:05.833Z,23.67
2022-07-26T17:08:48.070Z,23.71
2022-07-26T17:11:35.466Z,23.85
2022-07-26T17:14:17.914Z,24.02
2022-07-26T17:17:05.373Z,24.02
2022-07-26T17:19:53.949Z,23.94
2022-07-26T17:22:36.419Z,23.96
2022-07-26T17:25:24.369Z,23.92
2022-07-26T17:28:12.457Z,23.85
2022-07-26T17:30:54.103Z,23.77
2022-07-26T17:33:41.391Z,23.73
2022-07-26T17:36:31.354Z,23.70
2022-07-26T17:39:15.801Z,23.62
2022-07-26T17:42:04.331Z,23.53
2022-07-26T17:44:45.918Z,23.43
2022-07-26T17:47:34.325Z,23.39
2022-07-26T17:53:34.527Z,23.21
2022-07-26T17:56:25.309Z,23.22
2022-07-26T17:59:14.227Z,23.08
2022-07-26T18:01:56.344Z,23.00
2022-07-26T18:04:44.509Z,22.99
2022-07-26T18:07:26.290Z,22.99
2022-07-26T18:10:15.553Z,22.83
2022-07-26T18:12:58.363Z,22.77
2022-07-26T18:15:40.074Z,22.77
2022-07-26T18:18:28.633Z,22.72
2022-07-26T18:21:23.412Z,22.69
2022-07-26T18:24:17.245Z,22.66
2022-07-26T18:26:59.088Z,22.63
2022-07-26T18:29:49.370Z,22.57
2022-07-26T18:32:31.500Z,22.49
2022-07-26T18:35:19.238Z,22.41
2022-07-26T18:38:01.936Z,22.41
2022-07-26T18:40:49.254Z,22.39
2022-07-26T18:43:30.481Z,22.23
2022-07-26T18:46:20.397Z,22.10
2022-07-26T18:49:08.581Z,22.01
2022-07-26T18:52:08.387Z,21.97
2022-07-26T18:54:50.218Z,21.89
2022-07-26T18:57:39.449Z,21.84
2022-07-26T19:00:23.417Z,21.74
2022-07-26T19:03:14.957Z,21.71
2022-07-26T19:05:56.200Z,21.67
2022-07-26T19:08:44.471Z,21.60
2022-07-26T19:11:25.207Z,21.58
2022-07-26T19:14:13.413Z,21.53
2022-07-26T19:16:55.264Z,21.44
2022-07-26T19:19:52.280Z,21.31
2022-07-26T19:22:40.254Z,21.23
2022-07-26T19:25:21.431Z,21.18
2022-07-26T19:28:09.371Z,21.10
2022-07-26T19:30:50.504Z,20.99
2022-07-26T19:33:38.181Z,20.88
2022-07-26T19:36:25.591Z,20.78
2022-07-26T19:39:14.578Z,20.67
2022-07-26T19:42:02.177Z,20.57
2022-07-26T19:44:50.247Z,20.45
2022-07-26T19:47:31.397Z,20.33
2022-07-26T19:50:19.154Z,20.23
2022-07-26T19:53:09.147Z,20.13
2022-07-26T19:55:57.150Z,20.05
2022-07-26T19:58:38.362Z,19.99
2022-07-26T20:01:29.381Z,19.93
2022-07-26T20:04:17.210Z,19.87
2022-07-26T20:07:05.151Z,19.79
2022-07-26T20:09:48.505Z,19.70
2022-07-26T20:12:36.523Z,19.63
2022-07-26T20:15:19.654Z,19.58
2022-07-26T20:18:14.124Z,19.49
2022-07-26T20:21:03.249Z,19.39
2022-07-26T20:23:44.463Z,19.33
2022-07-26T20:26:34.110Z,19.29
2022-07-26T20:29:15.612Z,19.25
2022-07-26T20:32:03.090Z,19.22
2022-07-26T20:34:44.327Z,19.18
2022-07-26T20:37:32.084Z,19.17
2022-07-26T20:40:15.587Z,19.13
2022-07-26T20:43:08.140Z,19.08
2022-07-26T20:45:56.143Z,19.02
2022-07-26T20:48:44.115Z,18.95
2022-07-26T20:51:25.467Z,18.91
2022-07-26T20:54:14.082Z,18.90
2022-07-26T20:56:55.302Z,18.88
2022-07-26T20:59:45.094Z,18.89
2022-07-26T21:02:33.139Z,18.89
2022-07-26T21:05:15.037Z,18.88
2022-07-26T21:08:03.068Z,18.86
2022-07-26T21:10:46.072Z,18.78
2022-07-26T21:13:34.137Z,18.70
2022-07-26T21:16:25.096Z,18.67
2022-07-26T21:19:20.041Z,18.61
2022-07-26T21:22:08.167Z,18.56
2022-07-26T21:24:50.245Z,18.54
2022-07-26T21:27:38.042Z,18.49
2022-07-26T21:30:20.246Z,18.49
2022-07-26T21:33:10.028Z,18.43
2022-07-26T21:35:51.222Z,18.43
2022-07-26T21:38:41.244Z,18.40
2022-07-26T21:41:29.010Z,18.36
2022-07-26T21:44:18.072Z,18.29
2022-07-26T21:47:06.002Z,18.25
2022-07-26T21:49:49.198Z,18.16
2022-07-26T21:52:36.991Z,18.12
2022-07-26T21:55:24.973Z,18.07
2022-07-26T21:58:12.990Z,17.98
2022-07-26T22:01:06.550Z,17.95
2022-07-26T22:03:49.956Z,17.90
2022-07-26T22:06:39.334Z,17.84
2022-07-26T22:09:19.973Z,17.82
2022-07-26T22:12:01.710Z,17.77
2022-07-26T22:14:49.937Z,17.69
2022-07-26T22:17:39.658Z,17.65
2022-07-26T22:20:26.929Z,17.65
2022-07-26T22:23:19.932Z,17.68
2022-07-26T22:26:09.938Z,17.73
2022-07-26T22:28:51.145Z,17.76
2022-07-26T22:31:39.015Z,17.71
2022-07-26T22:34:20.143Z,17.64
2022-07-26T22:37:07.931Z,17.56
2022-07-26T22:39:58.046Z,17.57
2022-07-26T22:42:47.134Z,17.58
2022-07-26T22:45:29.055Z,17.54
2022-07-26T22:48:17.124Z,17.53
2022-07-26T22:50:58.902Z,17.55
2022-07-26T22:53:46.907Z,17.55
2022-07-26T22:56:38.932Z,17.59
2022-07-26T22:59:21.813Z,17.52
2022-07-26T23:02:09.971Z,17.53
2022-07-26T23:04:52.045Z,17.51
2022-07-26T23:07:40.949Z,17.51
2022-07-26T23:10:24.851Z,17.52
2022-07-26T23:13:14.855Z,17.54
2022-07-26T23:16:09.942Z,17.55
2022-07-26T23:19:04.844Z,17.56
2022-07-26T23:21:52.837Z,17.57
2022-07-26T23:24:40.849Z,17.55
2022-07-26T23:27:24.626Z,17.54
2022-07-26T23:30:14.851Z,17.54
2022-07-26T23:33:03.104Z,17.50
2022-07-26T23:35:43.860Z,17.50
2022-07-26T23:38:32.053Z,17.46
2022-07-26T23:41:12.813Z,17.43
2022-07-26T23:44:01.829Z,17.40
2022-07-26T23:46:45.078Z,17.38
2022-07-26T23:49:32.994Z,17.38
2022-07-26T23:52:20.808Z,17.29
2022-07-26T23:55:09.026Z,17.24
2022-07-26T23:57:49.813Z,17.17
